Time;durP1;ratioP1;P1;durP2;ratioP2;P2;SDS_P1;SDS_P2;PMS_P1;PMS_P2;Temp;Humidity;BMP_temperature;BMP_pressure;BME280_temperature;BME280_humidity;BME280_pressure;Samples;Min_cycle;Max_cycle;Signal;HPM_P1;HPM_P2
2021/04/21 00:02:13;;;;;;;18.85;12.13;;;;;;;;;;5080289;28;20040;-66
2021/04/21 00:04:40;;;;;;;21.10;13.25;;;;;;;;;;5076227;28;20405;-66
2021/04/21 00:07:07;;;;;;;21.10;12.32;;;;;;;;;;5082049;28;20048;-66
2021/04/21 00:09:33;;;;;;;17.70;12.52;;;;;;;;;;5077143;28;20048;-66
2021/04/21 00:11:59;;;;;;;16.15;10.80;;;;;;;;;;5081388;28;20036;-66
2021/04/21 00:14:25;;;;;;;15.70;10.85;;;;;;;;;;5077016;28;20052;-66
2021/04/21 00:16:54;;;;;;;17.48;11.88;;;;;;;;;;5079368;28;20059;-66
2021/04/21 00:19:21;;;;;;;18.02;11.57;;;;;;;;;;5077462;28;20056;-66
2021/04/21 00:21:48;;;;;;;18.83;12.40;;;;;;;;;;5079001;28;20056;-66
2021/04/21 00:24:15;;;;;;;19.27;12.20;;;;;;;;;;5078624;28;20056;-66
2021/04/21 00:26:43;;;;;;;24.45;15.38;;;;;;;;;;5078342;28;20055;-66
2021/04/21 00:29:10;;;;;;;21.90;14.55;;;;;;;;;;5078147;28;20040;-66
2021/04/21 00:31:36;;;;;;;22.73;14.75;;;;;;;;;;5078017;28;20401;-66
2021/04/21 00:34:03;;;;;;;25.20;14.77;;;;;;;;;;5079566;28;20469;-66
2021/04/21 00:36:31;;;;;;;19.52;11.90;;;;;;;;;;5079599;28;20047;-66
2021/04/21 00:38:59;;;;;;;22.20;14.35;;;;;;;;;;5079295;28;20075;-66
2021/04/21 00:41:32;;;;;;;21.40;13.30;;;;;;;;;;5078286;28;20486;-66
2021/04/21 00:44:04;;;;;;;18.73;12.35;;;;;;;;;;5077391;28;20052;-66
2021/04/21 00:46:33;;;;;;;19.92;12.25;;;;;;;;;;5077080;28;20053;-66
2021/04/21 00:49:08;;;;;;;21.67;13.25;;;;;;;;;;5079731;28;20097;-66
2021/04/21 00:51:48;;;;;;;24.35;13.13;;;;;;;;;;5077284;28;20412;-66
2021/04/21 00:54:19;;;;;;;16.92;11.43;;;;;;;;;;5078110;28;20049;-66
2021/04/21 00:56:53;;;;;;;17.00;10.90;;;;;;;;;;5079112;28;20137;-66
2021/04/21 00:59:25;;;;;;;17.75;11.52;;;;;;;;;;5075501;28;20052;-66
2021/04/21 01:01:53;;;;;;;15.45;10.57;;;;;;;;;;5078481;28;20416;-66
2021/04/21 01:04:19;;;;;;;17.35;11.40;;;;;;;;;;5078943;28;20043;-66
2021/04/21 01:06:46;;;;;;;24.85;13.82;;;;;;;;;;5079870;28;20074;-66
2021/04/21 01:09:13;;;;;;;19.92;12.18;;;;;;;;;;5075962;28;20048;-65
2021/04/21 01:11:42;;;;;;;22.20;11.52;;;;;;;;;;5078915;28;20049;-66
2021/04/21 01:14:12;;;;;;;20.73;12.82;;;;;;;;;;5078003;28;20059;-66
2021/04/21 01:16:39;;;;;;;19.15;12.50;;;;;;;;;;5077224;28;20109;-66
2021/04/21 01:19:11;;;;;;;18.30;11.85;;;;;;;;;;5076695;28;20040;-65
2021/04/21 01:21:41;;;;;;;16.67;11.18;;;;;;;;;;5077345;28;20534;-66
2021/04/21 01:24:21;;;;;;;20.13;11.98;;;;;;;;;;5076789;28;20381;-66
2021/04/21 01:26:54;;;;;;;22.20;12.65;;;;;;;;;;5077640;28;20401;-66
2021/04/21 01:29:26;;;;;;;20.02;11.68;;;;;;;;;;5078354;28;20044;-66
2021/04/21 01:31:55;;;;;;;18.55;11.77;;;;;;;;;;5078560;28;20098;-66
2021/04/21 01:34:22;;;;;;;19.50;11.88;;;;;;;;;;5077409;28;20052;-66
2021/04/21 01:36:49;;;;;;;19.08;11.48;;;;;;;;;;5081853;28;20057;-65
2021/04/21 01:39:15;;;;;;;17.13;10.82;;;;;;;;;;5075178;28;20071;-66
2021/04/21 01:41:45;;;;;;;17.55;11.23;;;;;;;;;;5075285;28;20057;-66
2021/04/21 01:44:13;;;;;;;19.67;11.35;;;;;;;;;;5075557;28;20049;-66
2021/04/21 01:46:43;;;;;;;20.77;12.07;;;;;;;;;;5078407;28;20045;-66
2021/04/21 01:49:46;;;;;;;19.15;12.52;;;;;;;;;;5076800;28;20110;-66
2021/04/21 01:52:33;;;;;;;17.40;11.07;;;;;;;;;;5078818;28;20041;-66
2021/04/21 01:55:04;;;;;;;19.92;12.18;;;;;;;;;;5070701;28;20090;-66
2021/04/21 01:57:35;;;;;;;19.67;10.38;;;;;;;;;;5076902;28;20045;-66
2021/04/21 02:00:05;;;;;;;18.05;11.82;;;;;;;;;;5076582;28;20052;-66
2021/04/21 02:02:37;;;;;;;20.27;12.07;;;;;;;;;;5074855;28;20063;-66
2021/04/21 02:05:08;;;;;;;26.23;16.08;;;;;;;;;;5073734;28;20443;-66
2021/04/21 02:07:42;;;;;;;23.35;13.70;;;;;;;;;;5076865;28;20049;-66
2021/04/21 02:10:21;;;;;;;21.80;13.05;;;;;;;;;;5077084;28;20057;-67
2021/04/21 02:12:53;;;;;;;18.33;12.55;;;;;;;;;;5077010;28;20413;-66
2021/04/21 02:15:22;;;;;;;19.45;12.18;;;;;;;;;;5076986;28;20078;-66
2021/04/21 02:17:53;;;;;;;21.83;13.52;;;;;;;;;;5077570;28;20037;-66
2021/04/21 02:20:28;;;;;;;23.65;13.98;;;;;;;;;;5075495;28;20408;-66
2021/04/21 02:22:58;;;;;;;18.52;12.65;;;;;;;;;;5075262;28;20048;-66
2021/04/21 02:25:33;;;;;;;22.17;12.45;;;;;;;;;;5073643;28;20044;-66
2021/04/21 02:28:04;;;;;;;19.95;12.13;;;;;;;;;;5076175;28;20150;-66
2021/04/21 02:30:42;;;;;;;21.88;11.82;;;;;;;;;;5076425;28;20052;-66
2021/04/21 02:33:16;;;;;;;20.33;12.18;;;;;;;;;;5075679;28;20051;-66
2021/04/21 02:35:44;;;;;;;22.45;13.50;;;;;;;;;;5075151;28;20052;-66
2021/04/21 02:38:26;;;;;;;20.42;12.63;;;;;;;;;;5075124;28;20041;-65
2021/04/21 02:41:10;;;;;;;22.17;14.05;;;;;;;;;;5074143;28;20098;-66
2021/04/21 02:43:56;;;;;;;22.45;13.10;;;;;;;;;;5076890;28;20052;-66
2021/04/21 02:46:26;;;;;;;21.77;12.40;;;;;;;;;;5077434;28;20118;-66
2021/04/21 02:49:04;;;;;;;19.25;11.73;;;;;;;;;;5075127;28;20041;-66
2021/04/21 02:51:39;;;;;;;19.85;11.45;;;;;;;;;;5071873;28;20050;-66
2021/04/21 02:54:11;;;;;;;20.20;12.02;;;;;;;;;;5074103;28;20048;-66
2021/04/21 02:56:40;;;;;;;21.02;12.60;;;;;;;;;;5077676;28;20048;-66
2021/04/21 02:59:13;;;;;;;21.30;12.90;;;;;;;;;;5074833;28;20052;-66
2021/04/21 03:01:43;;;;;;;17.92;11.27;;;;;;;;;;5072622;28;20037;-66
2021/04/21 03:04:15;;;;;;;18.90;11.90;;;;;;;;;;5073448;28;20056;-66
2021/04/21 03:06:43;;;;;;;22.67;12.93;;;;;;;;;;5076553;28;20067;-66
2021/04/21 03:09:11;;;;;;;23.02;13.13;;;;;;;;;;5078096;28;20053;-66
2021/04/21 03:11:37;;;;;;;22.50;12.98;;;;;;;;;;5074551;28;20049;-66
2021/04/21 03:14:06;;;;;;;21.95;11.38;;;;;;;;;;5075950;28;20531;-66
2021/04/21 03:16:35;;;;;;;19.02;11.75;;;;;;;;;;5079414;28;20059;-66
2021/04/21 03:19:05;;;;;;;19.17;10.65;;;;;;;;;;5076688;28;20048;-66
2021/04/21 03:21:34;;;;;;;22.45;13.77;;;;;;;;;;5076924;28;20044;-66
2021/04/21 03:24:06;;;;;;;21.38;13.93;;;;;;;;;;5081168;28;20040;-66
2021/04/21 03:26:33;;;;;;;19.98;12.60;;;;;;;;;;5077561;28;20131;-66
2021/04/21 03:29:01;;;;;;;23.23;14.07;;;;;;;;;;5079648;28;20044;-66
2021/04/21 03:31:30;;;;;;;19.92;11.90;;;;;;;;;;5078288;28;20048;-65
2021/04/21 03:33:59;;;;;;;18.75;11.50;;;;;;;;;;5078191;28;20413;-65
2021/04/21 03:36:25;;;;;;;18.40;12.00;;;;;;;;;;5077638;28;20561;-66
2021/04/21 03:38:53;;;;;;;22.50;12.73;;;;;;;;;;5078929;28;20416;-66
2021/04/21 03:41:20;;;;;;;23.63;13.27;;;;;;;;;;5079614;28;20059;-66
2021/04/21 03:43:46;;;;;;;22.38;13.30;;;;;;;;;;5080418;28;20075;-66
2021/04/21 03:46:13;;;;;;;24.23;14.55;;;;;;;;;;5080623;28;20405;-66
2021/04/21 03:48:41;;;;;;;20.48;12.13;;;;;;;;;;5076893;28;20474;-66
2021/04/21 03:51:07;;;;;;;25.50;13.98;;;;;;;;;;5080062;28;20048;-66
2021/04/21 03:53:35;;;;;;;22.33;13.18;;;;;;;;;;5081399;28;20040;-66
2021/04/21 03:56:03;;;;;;;21.00;12.80;;;;;;;;;;5082487;28;20044;-66
2021/04/21 03:58:30;;;;;;;20.75;12.23;;;;;;;;;;5083530;28;20044;-65
2021/04/21 04:01:00;;;;;;;25.42;13.60;;;;;;;;;;5077335;28;20044;-65
2021/04/21 04:03:27;;;;;;;28.88;14.40;;;;;;;;;;5076680;28;20045;-66
2021/04/21 04:05:58;;;;;;;24.45;14.80;;;;;;;;;;5074625;28;20048;-66
2021/04/21 04:08:27;;;;;;;23.13;13.90;;;;;;;;;;5074821;28;20128;-65
2021/04/21 04:10:54;;;;;;;22.23;13.30;;;;;;;;;;5075050;28;20056;-66
2021/04/21 04:13:22;;;;;;;23.33;14.50;;;;;;;;;;5074490;28;20052;-66
2021/04/21 04:15:48;;;;;;;25.33;15.52;;;;;;;;;;5073570;28;20470;-66
2021/04/21 04:18:15;;;;;;;26.55;15.02;;;;;;;;;;5075179;28;20053;-66
2021/04/21 04:20:43;;;;;;;28.75;15.30;;;;;;;;;;5076975;28;20098;-67
2021/04/21 04:23:11;;;;;;;27.85;16.27;;;;;;;;;;5071227;28;20036;-66
2021/04/21 04:25:39;;;;;;;35.40;18.50;;;;;;;;;;5069901;28;20056;-66
2021/04/21 04:28:07;;;;;;;26.08;14.80;;;;;;;;;;5079067;28;20040;-66
2021/04/21 04:30:34;;;;;;;24.88;14.70;;;;;;;;;;5076451;28;20045;-66
2021/04/21 04:33:00;;;;;;;28.05;16.15;;;;;;;;;;5070015;28;20048;-66
2021/04/21 04:35:27;;;;;;;29.65;14.02;;;;;;;;;;5073424;28;20389;-66
2021/04/21 04:37:57;;;;;;;26.60;14.85;;;;;;;;;;5078661;28;20048;-66
2021/04/21 04:40:23;;;;;;;30.65;15.27;;;;;;;;;;5075072;28;20062;-66
2021/04/21 04:42:50;;;;;;;25.65;14.70;;;;;;;;;;5079009;28;20496;-66
2021/04/21 04:45:17;;;;;;;24.65;14.10;;;;;;;;;;5075786;28;20102;-66
2021/04/21 04:47:45;;;;;;;28.42;14.93;;;;;;;;;;5077328;28;20488;-66
2021/04/21 04:50:12;;;;;;;26.70;14.48;;;;;;;;;;5078952;28;20194;-66
2021/04/21 04:52:40;;;;;;;30.40;15.55;;;;;;;;;;5075897;28;20056;-66
2021/04/21 04:55:09;;;;;;;26.90;14.50;;;;;;;;;;5077007;28;20393;-66
2021/04/21 04:57:35;;;;;;;24.65;14.48;;;;;;;;;;5075611;28;20481;-66
2021/04/21 05:00:03;;;;;;;22.60;13.73;;;;;;;;;;5080064;28;20045;-67
2021/04/21 05:02:33;;;;;;;24.90;13.70;;;;;;;;;;5080436;28;20480;-66
2021/04/21 05:05:01;;;;;;;27.33;14.25;;;;;;;;;;5081798;28;20051;-66
2021/04/21 05:07:32;;;;;;;26.73;13.85;;;;;;;;;;5075900;28;20047;-66
2021/04/21 05:10:03;;;;;;;25.50;13.60;;;;;;;;;;5079766;28;20691;-67
2021/04/21 05:12:30;;;;;;;25.15;14.07;;;;;;;;;;5077262;28;20184;-66
2021/04/21 05:14:56;;;;;;;26.50;15.60;;;;;;;;;;5078235;28;20052;-66
2021/04/21 05:18:05;;;;;;;25.67;14.93;;;;;;;;;;5075036;28;20049;-66
2021/04/21 05:21:11;;;;;;;32.72;16.73;;;;;;;;;;5051945;28;20507;-66
2021/04/21 05:24:06;;;;;;;25.33;15.35;;;;;;;;;;5080836;28;20052;-66
2021/04/21 05:26:43;;;;;;;27.95;16.33;;;;;;;;;;5081111;28;20455;-66
2021/04/21 05:29:49;;;;;;;24.27;14.23;;;;;;;;;;5078791;28;20538;-66
2021/04/21 05:32:45;;;;;;;35.95;17.67;;;;;;;;;;5074175;28;20048;-66
2021/04/21 05:35:50;;;;;;;29.05;16.55;;;;;;;;;;5076537;28;20055;-66
2021/04/21 05:38:48;;;;;;;27.40;14.57;;;;;;;;;;5022812;28;20040;-66
2021/04/21 05:41:43;;;;;;;35.67;16.67;;;;;;;;;;5075871;28;20466;-66
2021/04/21 05:44:57;;;;;;;32.08;16.80;;;;;;;;;;5075366;28;20400;-68
2021/04/21 05:48:11;;;;;;;27.30;15.30;;;;;;;;;;5072819;28;20094;-70
2021/04/21 05:51:28;;;;;;;24.40;14.05;;;;;;;;;;5072523;28;20048;-65
2021/04/21 05:54:15;;;;;;;32.15;15.32;;;;;;;;;;4984533;28;20053;-64
2021/04/21 05:57:14;;;;;;;32.60;16.42;;;;;;;;;;5077660;28;20044;-65
2021/04/21 06:00:05;;;;;;;36.20;19.50;;;;;;;;;;5068198;28;20439;-66
2021/04/21 06:02:32;;;;;;;38.03;19.65;;;;;;;;;;5072419;28;20051;-67
2021/04/21 06:05:06;;;;;;;33.15;19.20;;;;;;;;;;5075917;28;20106;-66
2021/04/21 06:07:32;;;;;;;37.90;19.50;;;;;;;;;;5072880;28;20046;-66
2021/04/21 06:09:59;;;;;;;33.42;19.35;;;;;;;;;;5071289;28;20121;-66
2021/04/21 06:12:25;;;;;;;35.15;18.80;;;;;;;;;;5075739;28;20044;-66
2021/04/21 06:14:52;;;;;;;31.75;18.75;;;;;;;;;;5074857;28;20135;-66
2021/04/21 06:17:24;;;;;;;37.22;19.85;;;;;;;;;;5072098;28;20071;-66
2021/04/21 06:19:50;;;;;;;33.33;20.52;;;;;;;;;;5075274;28;20055;-66
2021/04/21 06:22:26;;;;;;;30.77;18.70;;;;;;;;;;5069338;28;20200;-67
2021/04/21 06:25:08;;;;;;;32.97;19.25;;;;;;;;;;5075052;28;20059;-66
2021/04/21 06:27:34;;;;;;;35.97;21.10;;;;;;;;;;5074178;28;20045;-66
2021/04/21 06:30:04;;;;;;;41.15;23.10;;;;;;;;;;5077839;28;20055;-67
2021/04/21 06:32:30;;;;;;;38.60;24.35;;;;;;;;;;5071495;28;20052;-66
2021/04/21 06:35:04;;;;;;;41.20;23.92;;;;;;;;;;5080094;28;20059;-66
2021/04/21 06:37:30;;;;;;;36.90;23.65;;;;;;;;;;5075200;28;20396;-66
2021/04/21 06:40:01;;;;;;;37.00;22.70;;;;;;;;;;5076149;28;20135;-66
2021/04/21 06:42:28;;;;;;;38.63;23.13;;;;;;;;;;5070868;28;20055;-66
2021/04/21 06:44:54;;;;;;;35.50;22.35;;;;;;;;;;5076309;28;20052;-65
2021/04/21 06:47:21;;;;;;;35.78;21.90;;;;;;;;;;5076479;28;20055;-68
2021/04/21 06:49:57;;;;;;;31.90;21.38;;;;;;;;;;5081392;28;20054;-66
2021/04/21 06:52:23;;;;;;;34.45;20.67;;;;;;;;;;5080014;28;20385;-65
2021/04/21 06:55:01;;;;;;;37.33;20.92;;;;;;;;;;5083707;28;20060;-66
2021/04/21 06:57:31;;;;;;;35.70;20.13;;;;;;;;;;5077768;28;20094;-65
2021/04/21 07:00:09;;;;;;;29.58;19.75;;;;;;;;;;5084461;28;20378;-65
2021/04/21 07:02:39;;;;;;;30.45;21.27;;;;;;;;;;5079439;28;20131;-65
2021/04/21 07:05:24;;;;;;;31.85;20.92;;;;;;;;;;5082846;28;20040;-65
2021/04/21 07:07:50;;;;;;;37.20;21.88;;;;;;;;;;5081485;28;20517;-67
2021/04/21 07:10:17;;;;;;;29.80;19.80;;;;;;;;;;5080529;28;20040;-64
2021/04/21 07:12:45;;;;;;;34.15;22.45;;;;;;;;;;5080525;28;20040;-64
2021/04/21 07:15:11;;;;;;;33.30;21.73;;;;;;;;;;5081060;28;20124;-64
2021/04/21 07:17:38;;;;;;;35.72;21.90;;;;;;;;;;5079473;28;20057;-66
2021/04/21 07:20:05;;;;;;;31.73;21.50;;;;;;;;;;5077895;28;20044;-63
2021/04/21 07:22:31;;;;;;;35.40;22.73;;;;;;;;;;5084245;28;20142;-64
2021/04/21 07:24:57;;;;;;;29.48;21.30;;;;;;;;;;5081960;28;20044;-65
2021/04/21 07:27:23;;;;;;;30.20;21.30;;;;;;;;;;5072966;28;20048;-65
2021/04/21 07:29:50;;;;;;;34.67;22.05;;;;;;;;;;5081816;28;20454;-66
2021/04/21 07:32:20;;;;;;;34.80;22.77;;;;;;;;;;5079038;28;20052;-66
2021/04/21 07:34:57;;;;;;;36.72;22.65;;;;;;;;;;5083642;28;20438;-66
2021/04/21 07:37:34;;;;;;;30.90;21.75;;;;;;;;;;5080300;28;20048;-65
2021/04/21 07:40:00;;;;;;;30.25;20.65;;;;;;;;;;5081732;28;20071;-68
2021/04/21 07:42:26;;;;;;;32.92;23.88;;;;;;;;;;5087224;28;20055;-65
2021/04/21 07:44:55;;;;;;;32.40;21.63;;;;;;;;;;5084824;28;20048;-64
2021/04/21 07:47:22;;;;;;;29.48;20.95;;;;;;;;;;5077629;28;20072;-67
2021/04/21 07:49:55;;;;;;;29.50;21.65;;;;;;;;;;5085208;28;20059;-66
2021/04/21 07:52:23;;;;;;;31.55;21.70;;;;;;;;;;5084312;28;20415;-65
2021/04/21 07:54:50;;;;;;;32.90;22.25;;;;;;;;;;5084978;28;20041;-67
2021/04/21 07:57:17;;;;;;;28.92;20.73;;;;;;;;;;5080739;28;20079;-68
2021/04/21 07:59:44;;;;;;;26.88;20.80;;;;;;;;;;5076565;28;20044;-65
2021/04/21 08:02:19;;;;;;;27.63;22.10;;;;;;;;;;5080261;28;20055;-64
2021/04/21 08:04:56;;;;;;;25.75;20.40;;;;;;;;;;5073939;28;20051;-64
2021/04/21 08:07:34;;;;;;;27.92;19.92;;;;;;;;;;5081225;28;20051;-64
2021/04/21 08:10:01;;;;;;;27.70;20.38;;;;;;;;;;5080390;28;20504;-65
2021/04/21 08:12:30;;;;;;;28.40;21.45;;;;;;;;;;5080700;28;20505;-64
2021/04/21 08:15:00;;;;;;;23.98;19.48;;;;;;;;;;5076740;28;20048;-64
2021/04/21 08:17:27;;;;;;;24.77;17.02;;;;;;;;;;5075014;28;20048;-64
2021/04/21 08:19:55;;;;;;;22.30;17.50;;;;;;;;;;5081254;28;20036;-65
2021/04/21 08:22:25;;;;;;;20.00;16.02;;;;;;;;;;5080215;28;20095;-64
2021/04/21 08:24:52;;;;;;;22.63;17.60;;;;;;;;;;5077616;28;20054;-64
2021/04/21 08:27:18;;;;;;;23.38;18.02;;;;;;;;;;5076010;28;20055;-64
2021/04/21 08:29:45;;;;;;;26.15;18.88;;;;;;;;;;5075090;28;20058;-65
2021/04/21 08:32:16;;;;;;;24.25;18.95;;;;;;;;;;5078066;28;20052;-65
2021/04/21 08:34:43;;;;;;;23.08;17.55;;;;;;;;;;5075513;28;20052;-64
2021/04/21 08:37:09;;;;;;;22.58;18.67;;;;;;;;;;5078417;28;20044;-64
2021/04/21 08:39:36;;;;;;;20.52;15.60;;;;;;;;;;5075787;28;20630;-65
2021/04/21 08:42:02;;;;;;;18.45;14.50;;;;;;;;;;5079933;28;20415;-64
2021/04/21 08:44:32;;;;;;;19.38;15.63;;;;;;;;;;5082316;28;20053;-64
2021/04/21 08:47:00;;;;;;;21.33;16.33;;;;;;;;;;5082517;28;20071;-65
2021/04/21 08:49:29;;;;;;;20.27;15.63;;;;;;;;;;5077511;28;20044;-64
2021/04/21 08:51:58;;;;;;;19.80;16.00;;;;;;;;;;5078675;28;20049;-64
2021/04/21 08:54:25;;;;;;;17.83;15.60;;;;;;;;;;5077042;28;20055;-64
2021/04/21 08:56:52;;;;;;;20.08;16.75;;;;;;;;;;5080118;28;20048;-65
2021/04/21 08:59:18;;;;;;;18.73;16.65;;;;;;;;;;5079076;28;20052;-65
2021/04/21 09:01:46;;;;;;;18.48;16.35;;;;;;;;;;5081804;28;20055;-65
2021/04/21 09:04:14;;;;;;;20.45;16.45;;;;;;;;;;5079891;28;20071;-65
2021/04/21 09:06:40;;;;;;;20.45;16.80;;;;;;;;;;5079517;28;20638;-65
2021/04/21 09:09:07;;;;;;;19.90;16.17;;;;;;;;;;5081060;28;20051;-65
2021/04/21 09:11:33;;;;;;;19.98;17.00;;;;;;;;;;5079156;28;20485;-65
2021/04/21 09:13:59;;;;;;;19.38;15.80;;;;;;;;;;5079695;28;20041;-65
2021/04/21 09:16:25;;;;;;;19.65;16.50;;;;;;;;;;5077550;28;20063;-65
2021/04/21 09:18:51;;;;;;;18.02;15.65;;;;;;;;;;5079665;28;20044;-66
2021/04/21 09:21:19;;;;;;;18.42;15.35;;;;;;;;;;5076662;28;20061;-65
2021/04/21 09:23:46;;;;;;;16.48;14.05;;;;;;;;;;5073971;28;20044;-66
2021/04/21 09:26:15;;;;;;;18.95;15.10;;;;;;;;;;5071595;28;20519;-66
2021/04/21 09:28:42;;;;;;;18.25;14.15;;;;;;;;;;5074435;28;20059;-64
2021/04/21 09:31:14;;;;;;;19.42;15.00;;;;;;;;;;5072806;28;20128;-64
2021/04/21 09:33:40;;;;;;;17.83;14.07;;;;;;;;;;5073677;28;20055;-64
2021/04/21 09:36:06;;;;;;;18.02;15.30;;;;;;;;;;5073627;28;20079;-65
2021/04/21 09:38:32;;;;;;;18.23;13.52;;;;;;;;;;5069914;28;20044;-64
2021/04/21 09:41:01;;;;;;;16.45;13.10;;;;;;;;;;5074345;28;20059;-64
2021/04/21 09:43:29;;;;;;;15.13;12.52;;;;;;;;;;5072830;28;20132;-64
2021/04/21 09:45:57;;;;;;;14.55;12.50;;;;;;;;;;5071416;28;20473;-65
2021/04/21 09:48:24;;;;;;;15.85;12.23;;;;;;;;;;5075109;28;20082;-64
2021/04/21 09:50:59;;;;;;;15.40;12.88;;;;;;;;;;5070269;28;20063;-65
2021/04/21 09:53:27;;;;;;;16.05;13.98;;;;;;;;;;5073286;28;20036;-63
2021/04/21 09:56:17;;;;;;;14.73;12.85;;;;;;;;;;5073334;28;20481;-64
2021/04/21 09:58:46;;;;;;;16.95;13.40;;;;;;;;;;5068635;28;20094;-64
2021/04/21 10:01:23;;;;;;;15.27;13.65;;;;;;;;;;5081863;28;20056;-65
2021/04/21 10:04:05;;;;;;;16.58;14.20;;;;;;;;;;5077886;28;20102;-64
2021/04/21 10:06:31;;;;;;;15.25;12.75;;;;;;;;;;5079018;28;20074;-64
2021/04/21 10:08:58;;;;;;;14.60;13.07;;;;;;;;;;5080066;28;20044;-64
2021/04/21 10:11:24;;;;;;;13.63;12.13;;;;;;;;;;5079761;28;20071;-64
2021/04/21 10:13:52;;;;;;;15.30;12.48;;;;;;;;;;5081135;28;20048;-64
2021/04/21 10:16:19;;;;;;;14.90;12.45;;;;;;;;;;5079685;28;20056;-64
2021/04/21 10:18:45;;;;;;;16.70;12.10;;;;;;;;;;5075822;28;20044;-65
2021/04/21 10:21:13;;;;;;;14.20;11.75;;;;;;;;;;5075705;28;20140;-66
2021/04/21 10:23:40;;;;;;;14.40;12.43;;;;;;;;;;5080596;28;20136;-68
2021/04/21 10:26:09;;;;;;;15.00;11.27;;;;;;;;;;5080677;28;20045;-65
2021/04/21 10:28:37;;;;;;;13.85;12.38;;;;;;;;;;5079117;28;20470;-64
2021/04/21 10:31:04;;;;;;;15.35;12.48;;;;;;;;;;5078329;28;20135;-64
2021/04/21 10:33:30;;;;;;;15.95;11.52;;;;;;;;;;5079421;28;20044;-64
2021/04/21 10:35:57;;;;;;;14.13;11.40;;;;;;;;;;5075314;28;20053;-65
2021/04/21 10:38:24;;;;;;;14.35;11.23;;;;;;;;;;5072578;28;20052;-64
2021/04/21 10:40:50;;;;;;;12.63;10.40;;;;;;;;;;5080628;28;20085;-68
2021/04/21 10:43:40;;;;;;;14.13;11.18;;;;;;;;;;5075625;28;20576;-64
2021/04/21 10:46:07;;;;;;;13.98;10.60;;;;;;;;;;5075096;28;20039;-64
2021/04/21 10:48:40;;;;;;;12.00;10.52;;;;;;;;;;5077898;28;20044;-65
2021/04/21 10:51:34;;;;;;;14.25;11.63;;;;;;;;;;5077755;28;20413;-65
2021/04/21 10:54:01;;;;;;;15.52;11.38;;;;;;;;;;5079655;28;20048;-64
2021/04/21 10:56:28;;;;;;;11.55;9.85;;;;;;;;;;5079792;28;20052;-68
2021/04/21 10:58:56;;;;;;;13.02;10.50;;;;;;;;;;5080020;28;20047;-65
2021/04/21 11:01:30;;;;;;;13.60;11.40;;;;;;;;;;5077438;28;20086;-65
2021/04/21 11:03:56;;;;;;;11.70;10.02;;;;;;;;;;5079628;28;20052;-63
2021/04/21 11:06:45;;;;;;;11.10;9.77;;;;;;;;;;5076664;28;20060;-65
2021/04/21 11:09:12;;;;;;;13.43;11.80;;;;;;;;;;5073789;28;20041;-65
2021/04/21 11:11:40;;;;;;;13.48;11.23;;;;;;;;;;5081489;28;20052;-66
2021/04/21 11:14:08;;;;;;;13.50;11.70;;;;;;;;;;5081430;28;20173;-65
2021/04/21 11:16:37;;;;;;;17.42;11.88;;;;;;;;;;5075554;28;20056;-65
2021/04/21 11:19:31;;;;;;;15.65;12.68;;;;;;;;;;5075081;28;20044;-65
2021/04/21 11:22:15;;;;;;;16.45;11.77;;;;;;;;;;5078889;28;20056;-67
2021/04/21 11:24:41;;;;;;;13.30;11.43;;;;;;;;;;5078851;28;20059;-66
2021/04/21 11:27:42;;;;;;;14.15;12.23;;;;;;;;;;5078490;28;20062;-67
2021/04/21 11:30:51;;;;;;;12.02;10.65;;;;;;;;;;5062813;28;20480;-65
2021/04/21 11:33:56;;;;;;;13.13;10.43;;;;;;;;;;5076179;28;20068;-65
2021/04/21 11:36:40;;;;;;;12.85;11.48;;;;;;;;;;5071917;28;20503;-66
2021/04/21 11:39:07;;;;;;;14.60;12.73;;;;;;;;;;5073849;28;21380;-64
2021/04/21 11:41:40;;;;;;;12.18;10.90;;;;;;;;;;5076798;28;20807;-65
2021/04/21 11:44:08;;;;;;;12.88;11.13;;;;;;;;;;5078603;28;20045;-66
2021/04/21 11:46:56;;;;;;;13.52;10.93;;;;;;;;;;5076630;28;20048;-66
2021/04/21 11:49:59;;;;;;;17.70;12.10;;;;;;;;;;5076195;28;20051;-65
2021/04/21 11:52:43;;;;;;;16.65;12.40;;;;;;;;;;5078837;28;20052;-65
2021/04/21 11:55:10;;;;;;;13.43;11.93;;;;;;;;;;5075787;28;20044;-65
2021/04/21 11:57:36;;;;;;;14.75;12.70;;;;;;;;;;5077779;28;20102;-65
2021/04/21 12:00:05;;;;;;;15.25;11.07;;;;;;;;;;5073005;28;20045;-66
2021/04/21 12:02:33;;;;;;;11.95;10.20;;;;;;;;;;5076100;28;20530;-65
2021/04/21 12:04:59;;;;;;;13.15;11.65;;;;;;;;;;5073185;28;20772;-65
2021/04/21 12:07:25;;;;;;;14.88;11.43;;;;;;;;;;5071888;28;20101;-65
2021/04/21 12:09:52;;;;;;;13.13;10.93;;;;;;;;;;5071757;28;20052;-65
2021/04/21 12:12:22;;;;;;;13.45;11.52;;;;;;;;;;5071460;28;20064;-65
2021/04/21 12:15:02;;;;;;;13.38;11.82;;;;;;;;;;5070479;28;20409;-65
2021/04/21 12:17:28;;;;;;;12.18;10.52;;;;;;;;;;5070978;28;20101;-65
2021/04/21 12:19:54;;;;;;;12.80;10.45;;;;;;;;;;5073416;28;20485;-65
2021/04/21 12:22:20;;;;;;;11.27;10.05;;;;;;;;;;5071852;28;20098;-65
2021/04/21 12:24:46;;;;;;;12.18;9.77;;;;;;;;;;5071957;28;20045;-65
2021/04/21 12:27:27;;;;;;;11.38;9.32;;;;;;;;;;5071449;28;20057;-65
2021/04/21 12:29:53;;;;;;;9.60;7.93;;;;;;;;;;5071684;28;20041;-65
2021/04/21 12:32:26;;;;;;;9.55;8.13;;;;;;;;;;5070155;28;20517;-65
2021/04/21 12:34:52;;;;;;;12.15;9.20;;;;;;;;;;5071802;28;20048;-65
2021/04/21 12:37:21;;;;;;;10.15;9.15;;;;;;;;;;5076265;28;20084;-64
2021/04/21 12:39:47;;;;;;;9.20;8.20;;;;;;;;;;5078753;28;20109;-64
2021/04/21 12:42:19;;;;;;;10.02;9.02;;;;;;;;;;5080963;28;20045;-64
2021/04/21 12:44:46;;;;;;;13.68;8.55;;;;;;;;;;5074999;28;20544;-64
2021/04/21 12:47:13;;;;;;;9.55;8.20;;;;;;;;;;5076377;28;20045;-64
2021/04/21 12:49:41;;;;;;;10.73;8.23;;;;;;;;;;5074056;28;20071;-65
2021/04/21 12:52:09;;;;;;;9.38;8.15;;;;;;;;;;5077038;28;20052;-66
2021/04/21 12:54:37;;;;;;;9.95;8.95;;;;;;;;;;5074750;28;20158;-65
2021/04/21 12:57:04;;;;;;;12.43;9.35;;;;;;;;;;5074965;28;20043;-64
2021/04/21 12:59:38;;;;;;;11.02;8.10;;;;;;;;;;5073386;28;20044;-64
2021/04/21 13:02:05;;;;;;;9.30;7.82;;;;;;;;;;5074745;28;20048;-65
2021/04/21 13:04:36;;;;;;;9.48;8.30;;;;;;;;;;5071623;28;20052;-65
2021/04/21 13:07:12;;;;;;;10.95;7.93;;;;;;;;;;5077521;28;20048;-65
2021/04/21 13:09:38;;;;;;;10.32;8.30;;;;;;;;;;5069306;28;20048;-65
2021/04/21 13:12:05;;;;;;;9.73;8.73;;;;;;;;;;5074472;28;20063;-66
2021/04/21 13:14:35;;;;;;;9.73;8.50;;;;;;;;;;5073938;28;20056;-65
2021/04/21 13:17:01;;;;;;;10.45;7.63;;;;;;;;;;5075731;28;20511;-65
2021/04/21 13:19:29;;;;;;;8.73;7.70;;;;;;;;;;5073048;28;20123;-65
2021/04/21 13:22:00;;;;;;;12.95;8.02;;;;;;;;;;5069435;28;20577;-64
2021/04/21 13:24:26;;;;;;;8.48;7.38;;;;;;;;;;5072032;28;20048;-64
2021/04/21 13:26:53;;;;;;;10.27;7.30;;;;;;;;;;5069556;28;20040;-65
2021/04/21 13:29:30;;;;;;;10.48;7.72;;;;;;;;;;5075298;28;20056;-65
2021/04/21 13:32:06;;;;;;;9.23;7.35;;;;;;;;;;5080637;28;20044;-65
2021/04/21 13:34:33;;;;;;;10.07;7.35;;;;;;;;;;5079972;28;20048;-65
2021/04/21 13:36:59;;;;;;;7.97;6.93;;;;;;;;;;5077620;28;20673;-65
2021/04/21 13:39:25;;;;;;;9.77;8.68;;;;;;;;;;5078164;28;20048;-65
2021/04/21 13:41:51;;;;;;;10.05;8.45;;;;;;;;;;5078312;28;20060;-65
2021/04/21 13:44:17;;;;;;;9.70;8.55;;;;;;;;;;5079824;28;20071;-65
2021/04/21 13:46:43;;;;;;;10.02;8.40;;;;;;;;;;5080412;28;20098;-65
2021/04/21 13:49:09;;;;;;;9.63;8.65;;;;;;;;;;5079015;28;20052;-65
2021/04/21 13:51:35;;;;;;;9.48;8.48;;;;;;;;;;5077465;28;20056;-65
2021/04/21 13:54:02;;;;;;;11.85;9.75;;;;;;;;;;5077285;28;20043;-65
2021/04/21 13:56:28;;;;;;;10.18;8.77;;;;;;;;;;5076495;28;20053;-66
2021/04/21 13:58:54;;;;;;;10.07;9.02;;;;;;;;;;5077920;28;20045;-65
2021/04/21 14:01:20;;;;;;;9.05;7.78;;;;;;;;;;5076867;28;20139;-65
2021/04/21 14:03:46;;;;;;;9.43;8.52;;;;;;;;;;5079489;28;20044;-65
2021/04/21 14:06:12;;;;;;;9.98;8.23;;;;;;;;;;5080775;28;20381;-65
2021/04/21 14:08:39;;;;;;;9.50;8.13;;;;;;;;;;5081699;28;20044;-65
2021/04/21 14:11:05;;;;;;;8.88;7.47;;;;;;;;;;5079793;28;20044;-65
2021/04/21 14:13:31;;;;;;;9.38;8.38;;;;;;;;;;5080648;28;20052;-64
2021/04/21 14:15:58;;;;;;;10.10;8.35;;;;;;;;;;5079889;28;22843;-64
2021/04/21 14:18:25;;;;;;;9.52;8.00;;;;;;;;;;5077492;28;20099;-64
2021/04/21 14:20:51;;;;;;;8.73;7.78;;;;;;;;;;5076092;28;20044;-64
2021/04/21 14:23:17;;;;;;;7.50;6.55;;;;;;;;;;5078389;28;20056;-64
2021/04/21 14:25:44;;;;;;;8.57;7.38;;;;;;;;;;5083845;28;20098;-64
2021/04/21 14:28:10;;;;;;;8.90;7.95;;;;;;;;;;5078965;28;20044;-64
2021/04/21 14:30:36;;;;;;;9.07;6.65;;;;;;;;;;5073726;28;20052;-64
2021/04/21 14:33:02;;;;;;;7.55;6.45;;;;;;;;;;5073316;28;20052;-63
2021/04/21 14:35:28;;;;;;;8.02;6.63;;;;;;;;;;5072191;28;20056;-64
2021/04/21 14:37:54;;;;;;;7.28;6.22;;;;;;;;;;5071753;28;20600;-64
2021/04/21 14:40:20;;;;;;;7.90;6.80;;;;;;;;;;5077488;28;20123;-63
2021/04/21 14:42:47;;;;;;;15.27;7.50;;;;;;;;;;5077349;28;20055;-64
2021/04/21 14:45:14;;;;;;;8.60;6.93;;;;;;;;;;5079103;28;20048;-65